createdAt,value
2022-08-25T00:02:14.476Z,101999.47
2022-08-25T00:04:43.742Z,101998.66
2022-08-25T00:07:12.263Z,102003.44
2022-08-25T00:09:45.743Z,101995.44
2022-08-25T00:12:12.599Z,101992.28
2022-08-25T00:14:39.620Z,101992.44
2022-08-25T00:17:06.581Z,101989.78
2022-08-25T00:19:34.815Z,101979.13
2022-08-25T00:22:01.920Z,101989.06
2022-08-25T00:24:28.949Z,101986.91
2022-08-25T00:26:57.401Z,101982.38
2022-08-25T00:29:26.145Z,101988.38
2022-08-25T00:31:53.625Z,101984.91
2022-08-25T00:34:34.161Z,101990.25
2022-08-25T00:37:01.600Z,101987.94
2022-08-25T00:39:28.451Z,101981.97
2022-08-25T00:41:56.939Z,101980.28
2022-08-25T00:44:24.901Z,101983.50
2022-08-25T00:46:53.646Z,101969.59
2022-08-25T00:49:27.882Z,101984.06
2022-08-25T00:52:02.132Z,101982.22
2022-08-25T00:54:32.567Z,101968.97
2022-08-25T00:56:59.947Z,101990.19
2022-08-25T00:59:27.040Z,101980.19
2022-08-25T01:01:54.204Z,101986.16
2022-08-25T01:04:21.303Z,101984.78
2022-08-25T01:06:48.282Z,101978.84
2022-08-25T01:09:15.581Z,101988.22
2022-08-25T01:11:42.918Z,101988.72
2022-08-25T01:14:09.816Z,101991.66
2022-08-25T01:16:38.405Z,101993.78
2022-08-25T01:19:09.003Z,101987.28
2022-08-25T01:21:44.077Z,101988.91
2022-08-25T01:24:12.859Z,101993.41
2022-08-25T01:26:39.799Z,101983.78
2022-08-25T01:29:26.020Z,101985.16
2022-08-25T01:32:00.746Z,101984.81
2022-08-25T01:34:32.826Z,101988.19
2022-08-25T01:36:59.894Z,101984.34
2022-08-25T01:39:27.860Z,101983.53
2022-08-25T01:42:06.903Z,101977.06
2022-08-25T01:44:36.027Z,101974.56
2022-08-25T01:47:03.424Z,101975.53
2022-08-25T01:49:30.323Z,101968.34
2022-08-25T01:52:01.104Z,101982.13
2022-08-25T01:54:27.982Z,101982.84
2022-08-25T01:56:55.602Z,101974.81
2022-08-25T01:59:24.349Z,101986.09
2022-08-25T02:01:52.009Z,101981.13
2022-08-25T02:04:29.595Z,101972.50
2022-08-25T02:06:56.464Z,101977.47
2022-08-25T02:09:23.301Z,101973.78
2022-08-25T02:11:50.962Z,101961.03
2022-08-25T02:14:18.498Z,101976.56
2022-08-25T02:16:47.733Z,101982.25
2022-08-25T02:19:15.564Z,101987.09
2022-08-25T02:21:42.498Z,101981.13
2022-08-25T02:24:09.400Z,101966.00
2022-08-25T02:26:36.598Z,101973.13
2022-08-25T02:29:03.818Z,101980.28
2022-08-25T02:31:30.662Z,101975.06
2022-08-25T02:33:57.560Z,101985.69
2022-08-25T02:36:24.485Z,101989.72
2022-08-25T02:38:51.395Z,101973.38
2022-08-25T02:41:21.042Z,101976.09
2022-08-25T02:43:48.691Z,101980.72
2022-08-25T02:46:16.761Z,101966.25
2022-08-25T02:48:43.700Z,101967.34
2022-08-25T02:51:10.837Z,101960.47
2022-08-25T02:53:41.882Z,101971.53
2022-08-25T02:56:11.642Z,101963.38
2022-08-25T02:58:39.160Z,101949.03
2022-08-25T03:01:06.877Z,101960.06
2022-08-25T03:03:38.785Z,101957.25
2022-08-25T03:06:09.401Z,101952.38
2022-08-25T03:08:37.004Z,101945.03
2022-08-25T03:11:04.427Z,101941.00
2022-08-25T03:13:32.300Z,101948.88
2022-08-25T03:16:00.138Z,101952.22
2022-08-25T03:18:27.580Z,101942.38
2022-08-25T03:20:55.259Z,101939.81
2022-08-25T03:23:22.175Z,101948.06
2022-08-25T03:26:07.831Z,101953.75
2022-08-25T03:28:34.715Z,101940.16
2022-08-25T03:31:01.646Z,101932.69
2022-08-25T03:33:29.380Z,101939.97
2022-08-25T03:35:56.283Z,101936.38
2022-08-25T03:38:23.819Z,101932.91
2022-08-25T03:40:51.157Z,101931.16
2022-08-25T03:43:18.558Z,101937.31
2022-08-25T03:45:45.922Z,101930.59
2022-08-25T03:48:12.997Z,101940.59
2022-08-25T03:50:50.763Z,101939.78
2022-08-25T03:53:19.681Z,101942.28
2022-08-25T03:55:46.809Z,101950.75
2022-08-25T03:58:13.759Z,101947.81
2022-08-25T04:00:40.979Z,101956.63
2022-08-25T04:03:07.965Z,101956.44
2022-08-25T04:05:35.420Z,101956.06
2022-08-25T04:08:02.570Z,101950.94
2022-08-25T04:10:31.298Z,101958.88
2022-08-25T04:12:58.345Z,101965.78
2022-08-25T04:15:28.485Z,101963.03
2022-08-25T04:17:59.109Z,101959.66
2022-08-25T04:20:26.277Z,101955.41
2022-08-25T04:22:53.159Z,101959.56
2022-08-25T04:25:20.121Z,101959.66
2022-08-25T04:27:46.979Z,101955.44
2022-08-25T04:30:14.741Z,101941.72
2022-08-25T04:32:41.575Z,101939.59
2022-08-25T04:35:09.578Z,101937.91
2022-08-25T04:37:36.460Z,101931.38
2022-08-25T04:40:04.609Z,101931.63
2022-08-25T04:42:31.937Z,101926.88
2022-08-25T04:44:59.440Z,101926.31
2022-08-25T04:47:26.479Z,101928.03
2022-08-25T04:49:55.362Z,101928.94
2022-08-25T04:52:22.243Z,101929.91
2022-08-25T04:54:49.141Z,101918.72
2022-08-25T04:57:15.991Z,101910.56
2022-08-25T04:59:42.820Z,101914.75
2022-08-25T05:02:09.965Z,101923.06
2022-08-25T05:04:37.005Z,101925.22
2022-08-25T05:07:04.125Z,101909.78
2022-08-25T05:09:32.087Z,101914.81
2022-08-25T05:11:59.145Z,101902.53
2022-08-25T05:14:26.403Z,101914.00
2022-08-25T05:16:54.567Z,101913.13
2022-08-25T05:19:21.413Z,101908.53
2022-08-25T05:21:48.363Z,101926.06
2022-08-25T05:24:15.223Z,101925.31
2022-08-25T05:26:43.778Z,101920.69
2022-08-25T05:29:11.810Z,101901.19
2022-08-25T05:31:43.131Z,101923.31
2022-08-25T05:34:12.382Z,101918.03
2022-08-25T05:36:43.511Z,101920.78
2022-08-25T05:39:11.121Z,101912.81
2022-08-25T05:41:38.144Z,101920.00
2022-08-25T05:44:05.059Z,101917.72
2022-08-25T05:46:32.002Z,101911.56
2022-08-25T05:48:59.243Z,101910.94
2022-08-25T05:51:26.809Z,101923.66
2022-08-25T05:53:54.093Z,101917.47
2022-08-25T05:56:20.959Z,101911.09
2022-08-25T05:58:48.222Z,101905.59
2022-08-25T06:01:45.502Z,101909.31
2022-08-25T06:04:13.592Z,101913.38
2022-08-25T06:06:40.828Z,101918.75
2022-08-25T06:09:08.875Z,101918.94
2022-08-25T06:11:40.038Z,101923.69
2022-08-25T06:14:10.675Z,101922.13
2022-08-25T06:16:39.097Z,101920.97
2022-08-25T06:19:06.891Z,101918.50
2022-08-25T06:21:33.759Z,101914.47
2022-08-25T06:24:01.743Z,101919.94
2022-08-25T06:26:28.626Z,101918.19
2022-08-25T06:28:55.467Z,101920.53
2022-08-25T06:31:22.707Z,101915.44
2022-08-25T06:33:49.948Z,101908.75
2022-08-25T06:36:17.116Z,101919.72
2022-08-25T06:38:44.020Z,101928.41
2022-08-25T06:41:10.943Z,101930.69
2022-08-25T06:43:38.026Z,101919.53
2022-08-25T06:46:21.672Z,101925.97
2022-08-25T06:48:49.067Z,101929.38
2022-08-25T06:51:18.140Z,101913.97
2022-08-25T06:53:46.482Z,101935.50
2022-08-25T06:56:13.488Z,101946.53
2022-08-25T06:58:40.523Z,101942.88
2022-08-25T07:01:19.819Z,101944.66
2022-08-25T07:03:47.581Z,101944.59
2022-08-25T07:06:15.209Z,101949.88
2022-08-25T07:08:46.242Z,101956.94
2022-08-25T07:11:16.340Z,101944.78
2022-08-25T07:13:44.595Z,101947.66
2022-08-25T07:16:11.673Z,101945.94
2022-08-25T07:18:38.641Z,101960.47
2022-08-25T07:21:05.933Z,101962.09
2022-08-25T07:23:36.123Z,101928.66
2022-08-25T07:29:01.366Z,101974.94
2022-08-25T07:34:33.424Z,101982.28
2022-08-25T07:37:05.289Z,101976.66
2022-08-25T07:39:33.821Z,101980.41
2022-08-25T07:42:00.942Z,101988.25
2022-08-25T07:44:28.799Z,101987.00
2022-08-25T07:46:55.710Z,101991.94
2022-08-25T07:49:23.736Z,101992.78
2022-08-25T07:52:05.360Z,101992.13
2022-08-25T07:54:35.251Z,101990.50
2022-08-25T07:57:06.260Z,101995.66
2022-08-25T07:59:39.692Z,101990.50
2022-08-25T08:02:17.836Z,102001.41
2022-08-25T08:04:49.311Z,102007.41
2022-08-25T08:07:41.824Z,102001.22
2022-08-25T08:10:47.854Z,102005.13
2022-08-25T08:12:57.522Z,102004.13
2022-08-25T08:15:24.490Z,102011.53
2022-08-25T08:17:52.867Z,101998.97
2022-08-25T08:20:23.404Z,101990.31
2022-08-25T08:22:50.682Z,102003.66
2022-08-25T08:25:21.311Z,101990.72
2022-08-25T08:27:48.924Z,101985.16
2022-08-25T08:30:18.167Z,101998.94
2022-08-25T08:33:08.564Z,101995.81
2022-08-25T08:35:32.514Z,101999.03
2022-08-25T08:37:59.441Z,102001.88
2022-08-25T08:40:26.457Z,101989.41
2022-08-25T08:43:02.637Z,101992.66
2022-08-25T08:45:44.561Z,101992.38
2022-08-25T08:48:33.132Z,101991.00
2022-08-25T08:51:23.106Z,101997.00
2022-08-25T08:54:16.630Z,101992.47
2022-08-25T08:57:00.825Z,101980.69
2022-08-25T08:59:31.021Z,101978.47
2022-08-25T09:02:02.015Z,101993.28
2022-08-25T09:05:01.542Z,101994.50
2022-08-25T09:07:48.699Z,102001.41
2022-08-25T09:10:21.566Z,101988.78
2022-08-25T09:13:27.308Z,101986.13
2022-08-25T09:19:08.602Z,101960.84
2022-08-25T09:21:53.660Z,101966.47
2022-08-25T09:24:38.706Z,101962.50
2022-08-25T09:27:36.042Z,101962.53
2022-08-25T09:30:11.702Z,101959.06
2022-08-25T09:32:52.229Z,101955.81
2022-08-25T09:35:19.715Z,101946.81
2022-08-25T09:38:00.206Z,101951.47
2022-08-25T09:40:28.778Z,101943.44
2022-08-25T09:42:57.871Z,101937.88
2022-08-25T09:45:44.510Z,101943.53
2022-08-25T09:48:40.773Z,101935.75
2022-08-25T09:51:21.958Z,101925.78
2022-08-25T09:53:56.959Z,101914.72
2022-08-25T09:56:26.122Z,101921.78
2022-08-25T09:58:53.007Z,101911.94
2022-08-25T10:01:22.544Z,101905.75
2022-08-25T10:04:00.964Z,101910.06
2022-08-25T10:06:30.440Z,101914.38
2022-08-25T10:08:59.800Z,101913.75
2022-08-25T10:11:37.566Z,101898.75
2022-08-25T10:14:16.423Z,101901.44
2022-08-25T10:16:46.830Z,101883.31
2022-08-25T10:19:21.881Z,101871.97
2022-08-25T10:22:34.559Z,101859.31
2022-08-25T10:25:01.652Z,101871.34
2022-08-25T10:27:41.338Z,101857.69
2022-08-25T10:30:31.401Z,101862.38
2022-08-25T10:33:01.300Z,101863.03
2022-08-25T10:36:00.231Z,101873.84
2022-08-25T10:38:37.316Z,101879.91
2022-08-25T10:41:04.141Z,101883.84
2022-08-25T10:43:44.260Z,101881.63
2022-08-25T10:46:23.671Z,101883.75
2022-08-25T10:48:59.473Z,101875.38
2022-08-25T10:51:51.149Z,101872.91
2022-08-25T10:54:23.952Z,101875.38
2022-08-25T10:57:10.598Z,101864.31
2022-08-25T11:00:05.962Z,101870.50
2022-08-25T11:02:51.422Z,101869.78
2022-08-25T11:05:55.652Z,101862.38
2022-08-25T11:08:28.601Z,101876.72
2022-08-25T11:11:06.497Z,101868.97
2022-08-25T11:13:43.323Z,101875.13
2022-08-25T11:16:34.123Z,101857.56
2022-08-25T11:19:33.818Z,101872.00
2022-08-25T11:22:10.362Z,101869.94
2022-08-25T11:24:43.540Z,101873.06
2022-08-25T11:27:15.841Z,101859.38
2022-08-25T11:29:48.143Z,101860.44
2022-08-25T11:32:17.541Z,101858.88
2022-08-25T11:34:44.400Z,101853.03
2022-08-25T11:37:59.022Z,101854.31
2022-08-25T11:40:50.447Z,101858.19
2022-08-25T11:43:54.818Z,101850.19
2022-08-25T11:46:32.112Z,101854.34
2022-08-25T11:49:21.838Z,101861.09
2022-08-25T11:51:49.667Z,101847.25
2022-08-25T11:54:18.363Z,101857.00
2022-08-25T11:57:02.744Z,101845.78
2022-08-25T11:59:55.841Z,101849.38
2022-08-25T12:02:42.747Z,101849.28
2022-08-25T12:05:29.848Z,101851.59
2022-08-25T12:08:22.281Z,101846.50
2022-08-25T12:11:01.261Z,101850.97
2022-08-25T12:13:50.877Z,101853.06
2022-08-25T12:16:36.485Z,101854.97
2022-08-25T12:19:26.327Z,101856.53
2022-08-25T12:21:58.879Z,101859.25
2022-08-25T12:24:47.653Z,101849.72
2022-08-25T12:27:34.150Z,101856.84
2022-08-25T12:30:21.473Z,101851.91
2022-08-25T12:33:17.021Z,101859.06
2022-08-25T12:36:02.698Z,101862.28
2022-08-25T12:38:53.063Z,101854.13
2022-08-25T12:41:26.601Z,101859.09
2022-08-25T12:43:54.714Z,101853.25
2022-08-25T12:46:27.664Z,101844.53
2022-08-25T12:48:58.619Z,101844.44
2022-08-25T12:51:27.477Z,101849.03
2022-08-25T12:54:15.972Z,101847.53
2022-08-25T12:56:56.664Z,101844.59
2022-08-25T12:59:38.146Z,101842.56
2022-08-25T13:02:31.474Z,101853.19
2022-08-25T13:05:40.680Z,101856.13
2022-08-25T13:08:19.446Z,101858.81
2022-08-25T13:10:51.262Z,101852.00
2022-08-25T13:13:42.779Z,101857.75
2022-08-25T13:16:15.949Z,101831.75
2022-08-25T13:18:42.819Z,101846.25
2022-08-25T13:21:33.761Z,101842.66
2022-08-25T13:24:05.154Z,101841.66
2022-08-25T13:26:35.161Z,101839.00
2022-08-25T13:29:09.290Z,101845.88
2022-08-25T13:31:38.472Z,101823.06
2022-08-25T13:34:19.449Z,101821.16
2022-08-25T13:37:06.424Z,101825.94
2022-08-25T13:39:54.867Z,101829.66
2022-08-25T13:42:27.429Z,101823.31
2022-08-25T13:44:56.004Z,101815.00
2022-08-25T13:47:45.175Z,101808.44
2022-08-25T13:50:21.463Z,101808.38
2022-08-25T13:52:53.917Z,101811.19
2022-08-25T13:55:23.378Z,101801.25
2022-08-25T13:57:55.456Z,101795.81
2022-08-25T14:00:45.385Z,101804.06
2022-08-25T14:03:32.219Z,101790.38
2022-08-25T14:06:23.547Z,101794.31
2022-08-25T14:08:59.363Z,101794.84
2022-08-25T14:11:47.879Z,101798.72
2022-08-25T14:14:23.941Z,101802.34
2022-08-25T14:16:54.427Z,101811.81
2022-08-25T14:19:25.171Z,101799.56
2022-08-25T14:21:56.630Z,101796.91
2022-08-25T14:24:23.882Z,101802.03
2022-08-25T14:26:53.914Z,101798.63
2022-08-25T14:29:22.245Z,101800.94
2022-08-25T14:31:49.332Z,101786.41
2022-08-25T14:34:18.267Z,101801.41
2022-08-25T14:36:48.405Z,101789.75
2022-08-25T14:39:15.457Z,101800.75
2022-08-25T14:41:43.660Z,101788.94
2022-08-25T14:44:11.466Z,101793.88
2022-08-25T14:46:43.041Z,101781.44
2022-08-25T14:49:12.509Z,101783.44
2022-08-25T14:51:40.404Z,101776.34
2022-08-25T14:54:08.127Z,101775.34
2022-08-25T14:56:35.779Z,101785.50
2022-08-25T14:59:03.064Z,101771.03
2022-08-25T15:01:31.961Z,101774.91
2022-08-25T15:04:05.855Z,101769.81
2022-08-25T15:06:34.384Z,101776.06
2022-08-25T15:09:13.730Z,101767.00
2022-08-25T15:11:46.024Z,101781.28
2022-08-25T15:14:15.612Z,101785.84
2022-08-25T15:16:48.049Z,101780.31
2022-08-25T15:19:17.121Z,101775.00
2022-08-25T15:21:44.891Z,101778.94
2022-08-25T15:24:11.999Z,101778.25
2022-08-25T15:29:23.060Z,101772.28
2022-08-25T15:31:50.283Z,101787.13
2022-08-25T15:34:17.640Z,101783.84
2022-08-25T15:36:46.710Z,101778.25
2022-08-25T15:39:14.488Z,101775.38
2022-08-25T15:41:42.720Z,101768.41
2022-08-25T15:44:11.464Z,101760.38
2022-08-25T15:46:40.110Z,101766.34
2022-08-25T15:49:07.835Z,101752.53
2022-08-25T15:51:35.040Z,101746.78
2022-08-25T15:54:01.997Z,101746.56
2022-08-25T15:56:28.908Z,101740.78
2022-08-25T15:58:55.922Z,101748.41
2022-08-25T16:01:26.861Z,101733.59
2022-08-25T16:03:54.039Z,101742.88
2022-08-25T16:06:21.124Z,101729.69
2022-08-25T16:08:48.365Z,101727.63
2022-08-25T16:11:18.799Z,101726.81
2022-08-25T16:13:47.684Z,101718.38
2022-08-25T16:16:15.976Z,101713.41
2022-08-25T16:18:43.904Z,101713.00
2022-08-25T16:21:12.533Z,101707.63
2022-08-25T16:23:40.135Z,101723.81
2022-08-25T16:26:09.105Z,101714.75
2022-08-25T16:28:37.740Z,101715.38
2022-08-25T16:31:05.161Z,101718.44
2022-08-25T16:33:33.801Z,101714.94
2022-08-25T16:36:17.539Z,101715.31
2022-08-25T16:38:49.046Z,101723.13
2022-08-25T16:41:22.444Z,101715.72
2022-08-25T16:43:49.355Z,101700.28
2022-08-25T16:46:17.410Z,101719.22
2022-08-25T16:48:44.523Z,101723.09
2022-08-25T16:51:16.019Z,101708.91
2022-08-25T16:54:04.590Z,101719.59
2022-08-25T16:56:34.299Z,101715.69
2022-08-25T16:59:01.761Z,101713.25
2022-08-25T17:01:29.563Z,101709.28
2022-08-25T17:03:57.791Z,101701.28
2022-08-25T17:06:27.312Z,101717.91
2022-08-25T17:08:54.240Z,101703.25
2022-08-25T17:11:27.963Z,101724.22
2022-08-25T17:13:57.022Z,101713.13
2022-08-25T17:16:29.986Z,101714.53
2022-08-25T17:18:59.608Z,101704.63
2022-08-25T17:21:28.261Z,101709.75
2022-08-25T17:23:55.869Z,101718.59
2022-08-25T17:26:27.522Z,101714.84
2022-08-25T17:28:55.143Z,101712.00
2022-08-25T17:31:24.097Z,101706.03
2022-08-25T17:33:52.391Z,101717.53
2022-08-25T17:36:19.411Z,101718.34
2022-08-25T17:38:46.499Z,101714.03
2022-08-25T17:41:14.985Z,101713.22
2022-08-25T17:43:43.448Z,101706.19
2022-08-25T17:46:10.782Z,101697.94
2022-08-25T17:48:38.161Z,101708.03
2022-08-25T17:51:10.958Z,101717.09
2022-08-25T17:53:38.631Z,101712.78
2022-08-25T17:56:08.475Z,101704.78
2022-08-25T17:58:35.641Z,101705.16
2022-08-25T18:01:03.240Z,101710.50
2022-08-25T18:03:30.146Z,101722.63
2022-08-25T18:05:57.903Z,101719.97
2022-08-25T18:08:29.253Z,101716.66
2022-08-25T18:11:03.255Z,101715.41
2022-08-25T18:13:31.613Z,101720.75
2022-08-25T18:15:58.940Z,101711.66
2022-08-25T18:18:25.831Z,101717.25
2022-08-25T18:20:52.801Z,101710.44
2022-08-25T18:23:19.895Z,101711.28
2022-08-25T18:25:48.461Z,101710.03
2022-08-25T18:28:15.558Z,101719.06
2022-08-25T18:30:42.563Z,101711.63
2022-08-25T18:33:09.842Z,101694.94
2022-08-25T18:35:36.725Z,101706.00
2022-08-25T18:38:24.481Z,101713.41
2022-08-25T18:40:56.439Z,101710.69
2022-08-25T18:43:23.265Z,101703.44
2022-08-25T18:45:50.251Z,101718.41
2022-08-25T18:48:18.083Z,101710.19
2022-08-25T18:50:46.908Z,101711.38
2022-08-25T18:53:18.137Z,101713.38
2022-08-25T18:55:58.202Z,101711.94
2022-08-25T18:58:25.758Z,101709.47
2022-08-25T19:00:53.282Z,101715.00
2022-08-25T19:03:22.464Z,101720.06
2022-08-25T19:05:57.267Z,101699.09
2022-08-25T19:08:24.692Z,101718.34
2022-08-25T19:10:52.845Z,101714.44
2022-08-25T19:13:22.815Z,101716.00
2022-08-25T19:15:50.238Z,101707.78
2022-08-25T19:18:18.573Z,101716.66
2022-08-25T19:20:45.702Z,101713.34
2022-08-25T19:23:13.164Z,101714.00
2022-08-25T19:25:41.736Z,101710.31
2022-08-25T19:28:11.971Z,101710.94
2022-08-25T19:30:39.424Z,101703.19
2022-08-25T19:33:42.002Z,101707.09
2022-08-25T19:36:04.019Z,101707.53
2022-08-25T19:38:34.182Z,101715.75
2022-08-25T19:41:10.758Z,101710.25
2022-08-25T19:43:55.266Z,101710.88
2022-08-25T19:46:32.353Z,101705.16
2022-08-25T19:49:08.132Z,101706.41
2022-08-25T19:51:37.257Z,101705.59
2022-08-25T19:54:04.516Z,101700.25
2022-08-25T19:56:32.548Z,101704.66
2022-08-25T19:59:00.072Z,101695.81
2022-08-25T20:01:27.098Z,101695.19
2022-08-25T20:03:55.266Z,101691.91
2022-08-25T20:06:23.948Z,101691.44
2022-08-25T20:08:58.777Z,101693.84
2022-08-25T20:11:27.147Z,101694.69
2022-08-25T20:13:54.229Z,101692.03
2022-08-25T20:16:21.398Z,101678.81
2022-08-25T20:18:48.356Z,101692.56
2022-08-25T20:21:15.225Z,101688.72
2022-08-25T20:24:00.799Z,101687.88
2022-08-25T20:26:29.251Z,101685.66
2022-08-25T20:28:56.971Z,101683.00
2022-08-25T20:31:23.958Z,101691.00
2022-08-25T20:33:50.799Z,101688.06
2022-08-25T20:36:19.355Z,101693.00
2022-08-25T20:38:46.249Z,101678.63
2022-08-25T20:41:13.283Z,101697.72
2022-08-25T20:43:40.647Z,101695.06
2022-08-25T20:46:07.834Z,101685.97
2022-08-25T20:48:34.911Z,101687.44
2022-08-25T20:51:08.567Z,101694.81
2022-08-25T20:53:36.420Z,101694.19
2022-08-25T20:56:10.709Z,101681.25
2022-08-25T20:58:38.791Z,101696.28
2022-08-25T21:01:22.857Z,101689.09
2022-08-25T21:03:50.579Z,101694.47
2022-08-25T21:06:17.791Z,101692.63
2022-08-25T21:08:46.636Z,101686.47
2022-08-25T21:11:15.562Z,101694.69
2022-08-25T21:13:42.435Z,101690.72
2022-08-25T21:16:09.345Z,101683.31
2022-08-25T21:18:36.351Z,101687.63
2022-08-25T21:21:12.493Z,101684.13
2022-08-25T21:23:39.437Z,101685.97
2022-08-25T21:26:06.546Z,101690.66
2022-08-25T21:28:34.879Z,101685.53
2022-08-25T21:31:02.343Z,101689.28
2022-08-25T21:33:31.300Z,101680.84
2022-08-25T21:35:58.157Z,101683.97
2022-08-25T21:38:25.049Z,101674.13
2022-08-25T21:40:51.896Z,101668.72
2022-08-25T21:43:18.762Z,101670.81
2022-08-25T21:45:47.168Z,101674.72
2022-08-25T21:48:14.472Z,101668.41
2022-08-25T21:50:41.275Z,101668.56
2022-08-25T21:53:09.362Z,101658.94
2022-08-25T21:55:39.865Z,101663.06
2022-08-25T21:58:08.829Z,101651.38
2022-08-25T22:00:36.111Z,101659.16
2022-08-25T22:03:03.086Z,101656.91
2022-08-25T22:05:30.067Z,101635.28
2022-08-25T22:07:57.002Z,101640.88
2022-08-25T22:10:23.931Z,101644.78
2022-08-25T22:12:50.776Z,101646.81
2022-08-25T22:15:18.370Z,101648.66
2022-08-25T22:17:48.175Z,101654.81
2022-08-25T22:20:15.938Z,101639.84
2022-08-25T22:22:42.930Z,101641.84
2022-08-25T22:25:10.435Z,101637.13
2022-08-25T22:27:37.415Z,101635.13
2022-08-25T22:30:06.133Z,101637.59
2022-08-25T22:32:33.150Z,101633.72
2022-08-25T22:35:00.055Z,101627.59
2022-08-25T22:37:26.916Z,101620.16
2022-08-25T22:39:57.366Z,101628.78
2022-08-25T22:42:25.590Z,101620.78
2022-08-25T22:44:53.986Z,101613.19
2022-08-25T22:47:20.991Z,101617.09
2022-08-25T22:49:48.758Z,101601.47
2022-08-25T22:52:15.732Z,101611.13
2022-08-25T22:54:42.589Z,101608.50
2022-08-25T22:57:10.253Z,101589.56
2022-08-25T22:59:37.288Z,101602.94
2022-08-25T23:02:05.464Z,101588.47
2022-08-25T23:04:33.588Z,101598.16
2022-08-25T23:07:00.550Z,101588.69
2022-08-25T23:09:27.461Z,101586.41
2022-08-25T23:11:54.371Z,101571.00
2022-08-25T23:14:21.720Z,101580.47
2022-08-25T23:16:49.994Z,101575.97
2022-08-25T23:19:17.630Z,101574.94
2022-08-25T23:22:02.823Z,101570.81
2022-08-25T23:24:30.864Z,101561.38
2022-08-25T23:27:01.580Z,101563.19
2022-08-25T23:29:29.160Z,101556.00
2022-08-25T23:31:56.450Z,101565.69
2022-08-25T23:34:23.631Z,101563.63
2022-08-25T23:36:50.734Z,101571.44
2022-08-25T23:39:17.578Z,101549.84
2022-08-25T23:41:44.627Z,101564.25
2022-08-25T23:44:17.521Z,101558.13
2022-08-25T23:46:47.303Z,101571.66
2022-08-25T23:49:18.566Z,101556.38
2022-08-25T23:51:46.649Z,101551.84
2022-08-25T23:54:13.734Z,101541.78
2022-08-25T23:56:42.484Z,101546.50
2022-08-25T23:59:19.475Z,101545.88
